Time;durP1;ratioP1;P1;durP2;ratioP2;P2;SDS_P1;SDS_P2;PMS_P1;PMS_P2;Temp;Humidity;BMP_temperature;BMP_pressure;BME280_temperature;BME280_humidity;BME280_pressure;Samples;Min_cycle;Max_cycle;Signal;HPM_P1;HPM_P2
2022/06/28 00:00:32;;;;;;;18.02;16.30;;;13.90;99.90;;;;;;4986769;28;20057;-68
2022/06/28 00:02:58;;;;;;;18.23;16.48;;;13.90;99.90;;;;;;5002987;28;20038;-68
2022/06/28 00:05:24;;;;;;;17.20;15.57;;;13.80;99.90;;;;;;5000463;28;20763;-68
2022/06/28 00:07:49;;;;;;;23.38;21.25;;;13.80;99.90;;;;;;4987989;28;20049;-68
2022/06/28 00:10:16;;;;;;;18.77;17.15;;;13.80;99.90;;;;;;5001747;28;20049;-68
2022/06/28 00:12:42;;;;;;;18.10;16.40;;;13.70;99.90;;;;;;5001506;28;20083;-68
2022/06/28 00:17:56;;;;;;;18.48;16.88;;;13.70;99.90;;;;;;5001791;28;20141;-68
2022/06/28 00:20:23;;;;;;;18.75;17.05;;;13.60;99.90;;;;;;4967584;28;20081;-68
2022/06/28 00:22:48;;;;;;;17.38;15.88;;;13.60;99.90;;;;;;5002773;28;20042;-68
2022/06/28 00:25:14;;;;;;;18.30;16.67;;;13.50;99.90;;;;;;4987397;28;20592;-67
2022/06/28 00:27:40;;;;;;;20.80;18.85;;;13.50;99.90;;;;;;4986860;28;20050;-68
2022/06/28 00:30:07;;;;;;;18.50;16.75;;;13.50;99.90;;;;;;5003350;28;20045;-68
2022/06/28 00:32:33;;;;;;;25.65;23.05;;;13.50;99.90;;;;;;5002526;28;20127;-67
2022/06/28 00:34:59;;;;;;;23.38;20.92;;;13.40;99.90;;;;;;4986748;28;20145;-68
2022/06/28 00:37:26;;;;;;;17.38;15.90;;;13.40;99.90;;;;;;4983062;28;20045;-67
2022/06/28 00:39:52;;;;;;;20.25;18.42;;;13.40;99.90;;;;;;4975499;28;20046;-68
2022/06/28 00:42:21;;;;;;;20.05;18.20;;;13.40;99.90;;;;;;5004986;28;20358;-68
2022/06/28 00:44:51;;;;;;;20.73;19.03;;;13.40;99.90;;;;;;5003657;28;20057;-68
2022/06/28 00:47:20;;;;;;;22.40;20.25;;;13.40;99.90;;;;;;4986363;28;20077;-68
2022/06/28 00:49:46;;;;;;;19.40;17.70;;;13.40;99.90;;;;;;4985527;28;20038;-68
2022/06/28 00:52:13;;;;;;;19.48;17.85;;;13.40;99.90;;;;;;4986382;28;20416;-67
2022/06/28 00:54:42;;;;;;;19.88;18.13;;;13.40;99.90;;;;;;5004871;28;20491;-68
2022/06/28 00:57:08;;;;;;;19.80;18.10;;;13.40;99.90;;;;;;4972304;28;20123;-68
2022/06/28 00:59:34;;;;;;;21.25;19.23;;;13.40;99.90;;;;;;4970480;28;20479;-68
2022/06/28 01:02:00;;;;;;;26.05;23.77;;;13.40;99.90;;;;;;4984157;28;20046;-68
2022/06/28 01:04:27;;;;;;;18.27;16.65;;;13.30;99.90;;;;;;4986532;28;20091;-68
2022/06/28 01:06:54;;;;;;;19.85;18.13;;;13.30;99.90;;;;;;4991660;28;20042;-68
2022/06/28 01:09:20;;;;;;;26.92;24.42;;;13.30;99.90;;;;;;5001187;28;20077;-68
2022/06/28 01:11:46;;;;;;;24.85;22.52;;;13.30;99.90;;;;;;5001492;28;20135;-67
2022/06/28 01:14:13;;;;;;;22.63;20.20;;;13.30;99.90;;;;;;5002222;28;20453;-68
2022/06/28 01:16:39;;;;;;;24.48;22.38;;;13.30;99.90;;;;;;5001980;28;20181;-68
2022/06/28 01:19:06;;;;;;;23.30;21.23;;;13.30;99.90;;;;;;4985966;28;20080;-68
2022/06/28 01:21:34;;;;;;;19.58;17.73;;;13.30;99.90;;;;;;5001828;28;20054;-68
2022/06/28 01:24:00;;;;;;;19.75;17.92;;;13.20;99.90;;;;;;4999836;28;20049;-68
2022/06/28 01:26:26;;;;;;;24.70;22.45;;;13.30;99.90;;;;;;4981686;28;20046;-68
2022/06/28 01:28:53;;;;;;;21.27;19.30;;;13.20;99.90;;;;;;4984714;28;20046;-68
2022/06/28 01:31:20;;;;;;;21.98;20.00;;;13.20;99.90;;;;;;5002087;28;20033;-68
2022/06/28 01:33:52;;;;;;;19.10;17.52;;;13.10;99.90;;;;;;5002514;28;20128;-68
2022/06/28 01:36:18;;;;;;;18.45;16.90;;;13.10;99.90;;;;;;4984825;28;20532;-68
2022/06/28 01:38:45;;;;;;;21.58;19.67;;;13.10;99.90;;;;;;5002581;28;20041;-68
2022/06/28 01:41:32;;;;;;;18.80;17.05;;;13.00;99.90;;;;;;4968765;28;20099;-68
2022/06/28 01:43:58;;;;;;;19.73;18.02;;;13.00;99.90;;;;;;4999666;28;20042;-68
2022/06/28 01:46:25;;;;;;;22.45;20.42;;;13.00;99.90;;;;;;4985321;28;20737;-68
2022/06/28 01:48:51;;;;;;;21.08;19.17;;;13.00;99.90;;;;;;4999591;28;21250;-68
2022/06/28 01:51:16;;;;;;;19.77;17.77;;;13.00;99.90;;;;;;4998597;28;20540;-68
2022/06/28 01:53:42;;;;;;;21.70;19.70;;;13.00;99.90;;;;;;4981866;28;20046;-68
2022/06/28 01:56:08;;;;;;;22.60;20.40;;;13.00;99.90;;;;;;4999813;28;20049;-68
2022/06/28 01:58:34;;;;;;;21.95;19.98;;;12.90;99.90;;;;;;5001016;28;20053;-68
2022/06/28 02:00:59;;;;;;;22.20;20.02;;;12.90;99.90;;;;;;4982146;28;20408;-68
2022/06/28 02:03:25;;;;;;;23.52;21.35;;;12.90;99.90;;;;;;4998261;28;20151;-68
2022/06/28 02:05:51;;;;;;;24.45;22.13;;;12.80;99.90;;;;;;4978315;28;20515;-68
2022/06/28 02:08:17;;;;;;;19.73;17.90;;;12.80;99.90;;;;;;4999201;28;20041;-68
2022/06/28 02:10:45;;;;;;;24.27;21.95;;;12.80;99.90;;;;;;4982666;28;20600;-68
2022/06/28 02:13:11;;;;;;;22.80;20.80;;;12.70;99.90;;;;;;4983828;28;20030;-68
2022/06/28 02:15:37;;;;;;;25.30;22.98;;;12.80;99.90;;;;;;4999789;28;20054;-68
2022/06/28 02:18:02;;;;;;;23.15;21.17;;;12.70;99.90;;;;;;4999017;28;20037;-68
2022/06/28 02:20:28;;;;;;;25.80;23.38;;;12.70;99.90;;;;;;4982804;28;20073;-68
2022/06/28 02:22:54;;;;;;;21.98;19.88;;;12.70;99.90;;;;;;4980263;28;20650;-68
2022/06/28 02:25:20;;;;;;;18.65;16.98;;;12.70;99.90;;;;;;4981061;28;20042;-68
2022/06/28 02:27:49;;;;;;;23.45;21.27;;;12.70;99.90;;;;;;4996599;28;20081;-68
2022/06/28 02:30:15;;;;;;;23.23;21.02;;;12.60;99.90;;;;;;4977392;28;20050;-68
2022/06/28 02:32:41;;;;;;;22.17;20.17;;;12.60;99.90;;;;;;4984332;28;20100;-68
2022/06/28 02:40:40;;;;;;;22.83;20.65;;;12.60;99.90;;;;;;4994478;28;20042;-68
2022/06/28 02:43:05;;;;;;;27.92;25.42;;;12.60;99.90;;;;;;5002938;28;20058;-68
2022/06/28 02:45:34;;;;;;;24.52;22.33;;;12.60;99.90;;;;;;4987986;28;20058;-68
2022/06/28 02:48:04;;;;;;;23.60;21.30;;;12.60;99.90;;;;;;5002920;28;21658;-68
2022/06/28 02:50:30;;;;;;;18.75;17.10;;;12.60;99.90;;;;;;5004093;28;20053;-68
2022/06/28 02:52:55;;;;;;;23.33;21.27;;;12.60;99.90;;;;;;5017253;28;20548;-68
2022/06/28 02:55:21;;;;;;;23.10;20.95;;;12.60;99.90;;;;;;5000723;28;20096;-68
2022/06/28 02:57:50;;;;;;;20.83;19.17;;;12.60;99.90;;;;;;5003291;28;20046;-68
2022/06/28 03:00:19;;;;;;;26.85;24.27;;;12.60;99.90;;;;;;4985470;28;20056;-68
2022/06/28 03:02:46;;;;;;;28.13;25.30;;;12.50;99.90;;;;;;5003654;28;20068;-67
2022/06/28 03:05:14;;;;;;;28.60;25.90;;;12.50;99.90;;;;;;5002771;28;20084;-67
2022/06/28 03:07:41;;;;;;;20.73;18.85;;;12.50;99.90;;;;;;4987611;28;20275;-67
2022/06/28 03:10:08;;;;;;;20.63;18.60;;;12.50;99.90;;;;;;5001555;28;20745;-68
2022/06/28 03:12:34;;;;;;;21.27;19.38;;;12.40;99.90;;;;;;5003802;28;20034;-67
2022/06/28 03:15:00;;;;;;;19.80;18.05;;;12.40;99.90;;;;;;4985609;28;20096;-67
2022/06/28 03:17:25;;;;;;;19.48;17.83;;;12.40;99.90;;;;;;4985105;28;20595;-67
2022/06/28 03:19:51;;;;;;;19.20;17.42;;;12.30;99.90;;;;;;5001981;28;20049;-67
2022/06/28 03:22:20;;;;;;;18.50;16.83;;;12.30;99.90;;;;;;4986925;28;20042;-67
2022/06/28 03:24:46;;;;;;;20.30;18.50;;;12.20;99.90;;;;;;5000804;28;20053;-67
2022/06/28 03:27:13;;;;;;;20.58;18.67;;;12.20;99.90;;;;;;4985701;28;20072;-67
2022/06/28 03:29:38;;;;;;;28.17;25.52;;;12.10;99.90;;;;;;5003739;28;20476;-67
2022/06/28 03:32:05;;;;;;;24.67;22.58;;;12.10;99.90;;;;;;4985117;28;20041;-67
2022/06/28 03:34:31;;;;;;;37.28;30.08;;;12.20;99.90;;;;;;5002280;28;20076;-67
2022/06/28 03:36:56;;;;;;;21.08;19.17;;;12.20;99.90;;;;;;4986592;28;20706;-67
2022/06/28 03:39:22;;;;;;;22.13;20.23;;;12.20;99.90;;;;;;4986340;28;20112;-67
2022/06/28 03:41:48;;;;;;;24.40;22.45;;;12.20;99.90;;;;;;5001955;28;20125;-67
2022/06/28 03:44:14;;;;;;;21.17;19.17;;;12.20;99.90;;;;;;5002151;28;20053;-67
2022/06/28 03:46:48;;;;;;;22.85;20.73;;;12.20;99.90;;;;;;5000685;28;20084;-67
2022/06/28 03:49:14;;;;;;;19.67;18.05;;;12.20;99.90;;;;;;4970054;28;20536;-68
2022/06/28 03:51:40;;;;;;;17.55;16.02;;;12.20;99.90;;;;;;5002881;28;20065;-67
2022/06/28 03:54:06;;;;;;;18.20;16.45;;;12.20;99.90;;;;;;5001200;28;20180;-67
2022/06/28 03:56:32;;;;;;;18.58;17.08;;;12.10;99.90;;;;;;5002355;28;20934;-67
2022/06/28 03:58:57;;;;;;;19.80;18.00;;;12.00;99.90;;;;;;4984508;28;20049;-67
2022/06/28 04:01:23;;;;;;;19.25;17.55;;;12.00;99.90;;;;;;5003111;28;20046;-67
2022/06/28 04:03:49;;;;;;;18.42;16.73;;;11.90;99.90;;;;;;5003495;28;20144;-67
2022/06/28 04:06:15;;;;;;;21.30;19.45;;;11.90;99.90;;;;;;4986990;28;20061;-67
2022/06/28 04:08:40;;;;;;;21.85;19.90;;;11.90;99.90;;;;;;4986602;28;20038;-67
2022/06/28 04:11:15;;;;;;;21.95;19.90;;;11.90;99.90;;;;;;5004622;28;20041;-67
2022/06/28 04:13:49;;;;;;;20.23;18.33;;;11.90;99.90;;;;;;5002999;28;20481;-67
2022/06/28 04:16:19;;;;;;;19.83;18.10;;;12.00;99.90;;;;;;4988101;28;20092;-68
2022/06/28 04:18:45;;;;;;;20.73;18.92;;;12.00;99.90;;;;;;4985699;28;20102;-67
2022/06/28 04:21:14;;;;;;;21.35;19.48;;;12.00;99.90;;;;;;5003190;28;20555;-67
2022/06/28 04:23:41;;;;;;;21.45;19.55;;;12.10;99.90;;;;;;5004129;28;20046;-67
2022/06/28 04:26:06;;;;;;;22.90;20.92;;;12.10;99.90;;;;;;5003392;28;20053;-67
2022/06/28 04:28:33;;;;;;;21.42;19.63;;;12.10;99.90;;;;;;5002370;28;20042;-67
2022/06/28 04:30:59;;;;;;;23.52;21.23;;;12.10;99.90;;;;;;5003807;28;20080;-67
2022/06/28 04:33:27;;;;;;;23.00;20.73;;;12.10;99.90;;;;;;4987193;28;20636;-67
2022/06/28 04:35:53;;;;;;;24.00;21.77;;;12.10;99.90;;;;;;4998711;28;20050;-67
2022/06/28 04:38:21;;;;;;;23.08;20.75;;;12.20;99.90;;;;;;4987380;28;20534;-67
2022/06/28 04:40:47;;;;;;;25.42;23.00;;;12.20;99.90;;;;;;5004410;28;20057;-67
2022/06/28 04:43:13;;;;;;;21.30;19.40;;;12.30;99.90;;;;;;4986559;28;20163;-67
2022/06/28 04:45:39;;;;;;;22.20;20.20;;;12.30;99.90;;;;;;5002549;28;20460;-68
2022/06/28 04:48:06;;;;;;;22.60;20.35;;;12.40;99.90;;;;;;4986127;28;20054;-68
2022/06/28 04:50:32;;;;;;;27.65;24.25;;;12.50;99.90;;;;;;4970832;28;20061;-67
2022/06/28 04:52:57;;;;;;;22.98;20.63;;;12.60;99.90;;;;;;5002463;28;20038;-68
2022/06/28 04:55:24;;;;;;;26.23;23.63;;;12.60;99.90;;;;;;4983721;28;20052;-68
2022/06/28 04:57:49;;;;;;;21.67;19.55;;;12.60;99.90;;;;;;4986061;28;20124;-68
2022/06/28 05:00:16;;;;;;;27.48;24.58;;;12.80;99.90;;;;;;5001509;28;20077;-68
2022/06/28 05:02:42;;;;;;;23.60;21.40;;;12.80;99.90;;;;;;4983659;28;20488;-68
2022/06/28 05:05:09;;;;;;;21.42;19.33;;;12.80;99.90;;;;;;4983632;28;20822;-68
2022/06/28 05:07:36;;;;;;;20.70;18.60;;;12.90;99.90;;;;;;4982380;28;20131;-68
2022/06/28 05:10:04;;;;;;;22.42;20.17;;;12.90;99.90;;;;;;5000100;28;20769;-67
2022/06/28 05:12:29;;;;;;;21.70;19.58;;;12.90;99.90;;;;;;4997835;28;20575;-68
2022/06/28 05:14:55;;;;;;;22.15;20.13;;;13.00;99.90;;;;;;4983951;28;20046;-67
2022/06/28 05:17:21;;;;;;;21.63;19.73;;;13.10;99.90;;;;;;4997715;28;20042;-68
2022/06/28 05:19:51;;;;;;;20.60;18.58;;;13.10;99.90;;;;;;4999937;28;20213;-68
2022/06/28 05:22:17;;;;;;;23.23;20.13;;;13.10;99.90;;;;;;4986904;28;21339;-68
2022/06/28 05:24:45;;;;;;;21.60;19.42;;;13.20;99.90;;;;;;4984612;28;20041;-68
2022/06/28 05:27:11;;;;;;;20.55;18.67;;;13.30;99.90;;;;;;4982849;28;20064;-68
2022/06/28 05:29:36;;;;;;;21.02;18.52;;;13.30;99.90;;;;;;4981589;28;20477;-68
2022/06/28 05:32:03;;;;;;;20.95;18.98;;;13.40;99.90;;;;;;4999776;28;20647;-68
2022/06/28 05:34:29;;;;;;;22.90;20.42;;;13.40;99.90;;;;;;4983853;28;20046;-68
2022/06/28 05:36:58;;;;;;;20.13;18.33;;;13.50;99.90;;;;;;4982768;28;20038;-68
2022/06/28 05:39:24;;;;;;;21.00;18.05;;;13.60;99.90;;;;;;4981779;28;20038;-68
2022/06/28 05:41:53;;;;;;;21.98;19.55;;;13.60;99.90;;;;;;4997669;28;20244;-68
2022/06/28 05:44:19;;;;;;;20.00;18.00;;;13.70;99.90;;;;;;4979423;28;20049;-68
2022/06/28 05:46:44;;;;;;;19.67;17.77;;;13.80;99.90;;;;;;4962227;28;20115;-69
2022/06/28 05:49:11;;;;;;;17.38;15.63;;;13.90;99.90;;;;;;4975895;28;20492;-69
2022/06/28 05:51:37;;;;;;;20.77;18.63;;;13.90;99.90;;;;;;4997659;28;20037;-68
2022/06/28 05:54:03;;;;;;;16.63;14.93;;;14.00;99.90;;;;;;4998800;28;20042;-69
2022/06/28 05:56:30;;;;;;;17.13;14.40;;;14.10;99.90;;;;;;4992885;28;20045;-69
2022/06/28 05:58:56;;;;;;;18.40;14.00;;;14.10;99.90;;;;;;4994742;28;20046;-69
2022/06/28 06:01:23;;;;;;;16.77;14.90;;;14.20;99.90;;;;;;4997357;28;20057;-69
2022/06/28 06:03:50;;;;;;;20.45;16.20;;;14.20;99.90;;;;;;4983203;28;20042;-69
2022/06/28 06:06:16;;;;;;;20.17;18.17;;;14.40;99.90;;;;;;4981577;28;20056;-69
2022/06/28 06:08:41;;;;;;;20.50;16.25;;;14.40;99.90;;;;;;4999484;28;20041;-69
2022/06/28 06:11:07;;;;;;;16.33;13.38;;;14.50;99.90;;;;;;4998554;28;20239;-69
2022/06/28 06:13:34;;;;;;;15.85;13.90;;;14.50;99.90;;;;;;4996830;28;20049;-70
2022/06/28 06:16:03;;;;;;;14.13;12.60;;;14.60;99.90;;;;;;4989089;28;21254;-69
2022/06/28 06:18:30;;;;;;;14.63;12.85;;;14.70;99.90;;;;;;4999768;28;20046;-69
2022/06/28 06:20:56;;;;;;;15.63;13.77;;;14.80;99.90;;;;;;4999573;28;20061;-69
2022/06/28 06:23:21;;;;;;;14.38;11.93;;;14.80;99.90;;;;;;4999994;28;20080;-70
2022/06/28 06:25:50;;;;;;;17.98;12.85;;;14.80;99.90;;;;;;4983607;28;20034;-69
2022/06/28 06:28:16;;;;;;;15.77;12.05;;;14.90;99.90;;;;;;4983637;28;20034;-69
2022/06/28 06:30:42;;;;;;;17.40;12.98;;;15.00;99.90;;;;;;4999063;28;20045;-70
2022/06/28 06:33:07;;;;;;;16.63;11.65;;;15.10;99.90;;;;;;4984496;28;20038;-70
2022/06/28 06:35:33;;;;;;;14.10;10.55;;;15.20;99.90;;;;;;4982218;28;20128;-69
2022/06/28 06:38:01;;;;;;;14.75;11.75;;;15.20;99.90;;;;;;5000361;28;20042;-70
2022/06/28 06:40:29;;;;;;;13.40;10.15;;;15.30;99.90;;;;;;4999727;28;20037;-70
2022/06/28 06:42:55;;;;;;;15.32;10.57;;;15.40;99.90;;;;;;4980782;28;20042;-70
2022/06/28 06:45:21;;;;;;;20.45;9.85;;;15.50;99.90;;;;;;4999768;28;20050;-70
2022/06/28 06:47:46;;;;;;;16.85;9.45;;;15.50;99.90;;;;;;4997155;28;20041;-70
2022/06/28 06:50:12;;;;;;;14.35;10.10;;;15.60;99.90;;;;;;4998148;28;20129;-70
2022/06/28 06:52:39;;;;;;;15.43;10.93;;;15.80;99.90;;;;;;5000002;28;20147;-70
2022/06/28 06:55:06;;;;;;;15.23;10.05;;;15.80;99.90;;;;;;4981749;28;20111;-70
2022/06/28 06:57:32;;;;;;;15.05;9.65;;;15.90;99.90;;;;;;4981351;28;20069;-70
2022/06/28 06:59:58;;;;;;;13.77;8.63;;;16.10;99.90;;;;;;4999102;28;20051;-70
2022/06/28 07:02:23;;;;;;;14.20;8.63;;;16.10;99.90;;;;;;4982688;28;20042;-69
2022/06/28 07:04:49;;;;;;;12.93;7.72;;;16.30;99.90;;;;;;4999555;28;20041;-69
2022/06/28 07:07:15;;;;;;;9.80;7.03;;;16.30;99.90;;;;;;4982783;28;20596;-70
2022/06/28 07:09:41;;;;;;;14.45;7.32;;;16.50;99.90;;;;;;4998519;28;20545;-70
2022/06/28 07:12:07;;;;;;;18.23;8.23;;;16.50;99.90;;;;;;4997461;28;20088;-70
2022/06/28 07:14:33;;;;;;;10.75;6.18;;;16.60;99.90;;;;;;4982990;28;20049;-70
2022/06/28 07:16:58;;;;;;;12.85;6.50;;;16.50;99.90;;;;;;4966986;28;20042;-70
2022/06/28 07:19:24;;;;;;;13.68;5.88;;;16.60;99.90;;;;;;4963268;28;20729;-70
2022/06/28 07:21:50;;;;;;;13.90;6.00;;;16.70;99.90;;;;;;4976967;28;20046;-70
2022/06/28 07:24:17;;;;;;;13.48;5.32;;;16.80;99.90;;;;;;5000783;28;20053;-69
2022/06/28 07:26:43;;;;;;;15.32;5.47;;;16.90;99.90;;;;;;4986273;28;20129;-70
2022/06/28 07:29:10;;;;;;;13.07;5.28;;;17.00;99.90;;;;;;4984511;28;20070;-70
2022/06/28 07:31:36;;;;;;;10.02;5.75;;;17.00;99.90;;;;;;5002818;28;20113;-70
2022/06/28 07:34:05;;;;;;;9.90;5.10;;;17.00;99.90;;;;;;4986515;28;20241;-70
2022/06/28 07:36:31;;;;;;;10.15;4.60;;;17.00;99.90;;;;;;5002235;28;20037;-70
2022/06/28 07:38:56;;;;;;;14.63;5.20;;;17.10;99.90;;;;;;5002227;28;20042;-70
2022/06/28 07:41:23;;;;;;;10.40;5.10;;;17.20;99.90;;;;;;4985196;28;20057;-70
2022/06/28 07:43:52;;;;;;;10.82;5.47;;;17.40;99.90;;;;;;5001241;28;20595;-71
2022/06/28 07:46:20;;;;;;;8.27;5.35;;;17.50;99.90;;;;;;4985887;28;20061;-71
2022/06/28 07:48:46;;;;;;;12.02;5.22;;;17.60;99.90;;;;;;4970001;28;20436;-70
2022/06/28 07:53:57;;;;;;;12.25;4.28;;;17.90;99.90;;;;;;5001776;28;20064;-70
2022/06/28 07:56:23;;;;;;;8.85;4.10;;;18.10;99.90;;;;;;4969589;28;20073;-70
2022/06/28 07:58:49;;;;;;;12.30;4.75;;;18.20;99.90;;;;;;5002020;28;20681;-70
2022/06/28 08:01:15;;;;;;;11.00;3.97;;;18.40;99.90;;;;;;4971031;28;20123;-70
2022/06/28 08:03:41;;;;;;;11.98;4.38;;;18.60;99.90;;;;;;4987464;28;20045;-70
2022/06/28 08:06:07;;;;;;;9.25;3.75;;;18.70;99.90;;;;;;4986330;28;20045;-70
2022/06/28 08:08:33;;;;;;;9.77;4.43;;;18.70;99.90;;;;;;5002579;28;20108;-70
2022/06/28 08:10:59;;;;;;;8.60;3.75;;;18.40;99.90;;;;;;5001428;28;20116;-69
2022/06/28 08:13:25;;;;;;;9.38;4.30;;;18.20;99.90;;;;;;4987040;28;20515;-70
2022/06/28 08:15:51;;;;;;;12.57;4.13;;;18.00;99.90;;;;;;4985502;28;20440;-70
2022/06/28 08:18:20;;;;;;;12.27;3.72;;;17.90;99.90;;;;;;5001696;28;20256;-70
2022/06/28 08:20:46;;;;;;;8.10;2.70;;;18.10;99.90;;;;;;4969698;28;20425;-70
2022/06/28 08:23:12;;;;;;;8.52;2.30;;;18.30;99.90;;;;;;5001873;28;20045;-69
2022/06/28 08:25:41;;;;;;;8.77;2.42;;;18.40;99.90;;;;;;4986081;28;20728;-70
2022/06/28 08:28:07;;;;;;;9.75;3.08;;;18.40;99.90;;;;;;5000806;28;20052;-69
2022/06/28 08:30:33;;;;;;;7.93;2.67;;;18.60;99.90;;;;;;5002283;28;20045;-70
2022/06/28 08:32:59;;;;;;;7.85;2.60;;;18.70;99.90;;;;;;5000203;28;20050;-70
2022/06/28 08:35:25;;;;;;;7.07;2.53;;;18.90;99.90;;;;;;4984562;28;20566;-70
2022/06/28 08:37:51;;;;;;;8.55;2.33;;;18.80;99.90;;;;;;5001425;28;20041;-70
2022/06/28 08:40:17;;;;;;;7.18;2.63;;;18.70;99.90;;;;;;4984783;28;20517;-70
2022/06/28 08:42:49;;;;;;;11.90;2.78;;;18.90;99.90;;;;;;4969115;28;20497;-70
2022/06/28 08:45:17;;;;;;;8.13;2.50;;;19.10;99.90;;;;;;5000854;28;20084;-69
2022/06/28 08:47:51;;;;;;;6.10;1.95;;;19.30;99.90;;;;;;4983159;28;20119;-70
2022/06/28 08:50:33;;;;;;;8.93;2.28;;;19.30;99.90;;;;;;4983289;28;20064;-70
2022/06/28 08:53:04;;;;;;;8.43;2.35;;;19.50;99.90;;;;;;4984381;28;20121;-70
2022/06/28 08:55:32;;;;;;;9.77;2.78;;;19.70;99.90;;;;;;5000471;28;20072;-71
2022/06/28 08:58:04;;;;;;;8.30;2.42;;;19.80;99.90;;;;;;4969038;28;20040;-71
2022/06/28 09:00:29;;;;;;;7.13;2.70;;;19.90;99.90;;;;;;5000648;28;20588;-71
2022/06/28 09:02:55;;;;;;;9.85;3.10;;;19.80;99.90;;;;;;4984459;28;20037;-71
2022/06/28 09:05:24;;;;;;;7.78;2.53;;;19.70;99.90;;;;;;5001433;28;20134;-71
2022/06/28 09:07:52;;;;;;;7.30;2.75;;;19.80;99.90;;;;;;5001179;28;20564;-71
2022/06/28 09:10:19;;;;;;;7.75;2.50;;;19.80;99.90;;;;;;4983936;28;20050;-71
2022/06/28 09:12:54;;;;;;;8.88;2.60;;;19.70;99.90;;;;;;4984232;28;20046;-71
2022/06/28 09:15:25;;;;;;;5.78;2.05;;;19.70;99.90;;;;;;5000701;28;20049;-71
2022/06/28 09:17:55;;;;;;;5.93;1.63;;;19.80;99.90;;;;;;4999735;28;20088;-71
2022/06/28 09:20:35;;;;;;;5.25;1.58;;;20.00;99.90;;;;;;4999926;28;20083;-71
2022/06/28 09:23:01;;;;;;;;;;;20.30;99.90;;;;;;4984609;28;20085;-71
2022/06/28 09:25:30;;;;;;;8.20;1.90;;;20.50;99.90;;;;;;4984516;28;20003;-71
2022/06/28 09:27:58;;;;;;;7.40;1.90;;;20.70;99.90;;;;;;4999170;28;20054;-70
2022/06/28 09:30:27;;;;;;;8.10;2.15;;;21.00;99.90;;;;;;5000472;28;20054;-71
2022/06/28 09:32:53;;;;;;;6.15;1.35;;;21.10;99.90;;;;;;5001215;28;20053;-71
2022/06/28 09:35:19;;;;;;;7.97;1.60;;;21.10;99.90;;;;;;4984236;28;20049;-72
2022/06/28 09:37:53;;;;;;;7.57;1.52;;;21.00;99.90;;;;;;4985012;28;20452;-71
2022/06/28 09:40:33;;;;;;;6.60;1.58;;;21.20;99.90;;;;;;4999545;28;20373;-71
2022/06/28 09:43:14;;;;;;;6.28;1.70;;;21.20;99.90;;;;;;4999602;28;20492;-72
2022/06/28 09:45:43;;;;;;;7.85;1.92;;;21.20;99.90;;;;;;5000082;28;20061;-71
2022/06/28 09:48:15;;;;;;;5.15;1.80;;;21.00;99.90;;;;;;4997875;28;20072;-71
2022/06/28 09:50:41;;;;;;;6.85;1.70;;;20.80;99.90;;;;;;4998586;28;20648;-71
2022/06/28 09:53:07;;;;;;;5.75;1.50;;;20.70;99.90;;;;;;4968558;28;20084;-71
2022/06/28 09:55:33;;;;;;;6.50;1.45;;;20.60;99.90;;;;;;4967268;28;20046;-71
2022/06/28 09:58:01;;;;;;;6.53;1.70;;;20.70;99.90;;;;;;5000654;28;20045;-71
2022/06/28 10:00:28;;;;;;;5.82;1.63;;;20.70;99.90;;;;;;5000284;28;20050;-70
2022/06/28 10:02:55;;;;;;;9.10;1.63;;;20.90;99.90;;;;;;4969695;28;20125;-71
2022/06/28 10:05:21;;;;;;;7.80;1.70;;;21.00;99.90;;;;;;4999552;28;20065;-71
2022/06/28 10:07:47;;;;;;;5.90;1.40;;;21.20;99.90;;;;;;4982932;28;20046;-70
2022/06/28 10:10:14;;;;;;;12.18;1.60;;;21.30;99.90;;;;;;4998257;28;20124;-71
2022/06/28 10:15:27;;;;;;;6.53;1.35;;;21.50;99.90;;;;;;4999537;28;20042;-71
2022/06/28 10:18:02;;;;;;;5.25;1.27;;;21.60;99.90;;;;;;4980680;28;20038;-70
2022/06/28 10:20:37;;;;;;;4.25;1.10;;;21.70;99.90;;;;;;4999223;28;20053;-71
2022/06/28 10:23:40;;;;;;;5.60;1.30;;;21.40;99.90;;;;;;4967548;28;20042;-71
2022/06/28 10:26:09;;;;;;;5.25;1.70;;;21.20;99.90;;;;;;4998058;28;20148;-71
2022/06/28 10:28:35;;;;;;;8.60;1.70;;;21.20;99.90;;;;;;4998792;28;20046;-71
2022/06/28 10:31:22;;;;;;;4.53;1.60;;;21.40;99.90;;;;;;5000597;28;20118;-71
2022/06/28 10:33:49;;;;;;;4.50;1.08;;;21.70;99.90;;;;;;4981577;28;20045;-71
2022/06/28 10:36:17;;;;;;;5.15;1.90;;;21.90;99.90;;;;;;4998252;28;20100;-71
2022/06/28 10:39:07;;;;;;;8.00;1.48;;;22.10;99.90;;;;;;4999561;28;20046;-71
2022/06/28 10:41:43;;;;;;;6.50;1.42;;;22.30;99.90;;;;;;5000115;28;20127;-72
2022/06/28 10:44:28;;;;;;;5.95;1.05;;;22.40;99.90;;;;;;4998398;28;20058;-72
2022/06/28 10:47:03;;;;;;;4.97;1.23;;;22.50;97.10;;;;;;4985458;28;20049;-71
2022/06/28 10:49:51;;;;;;;6.15;1.30;;;22.40;96.90;;;;;;4998676;28;20501;-71
2022/06/28 10:52:26;;;;;;;5.82;1.20;;;22.50;98.20;;;;;;4998787;28;20042;-71
2022/06/28 10:54:52;;;;;;;5.25;1.17;;;22.60;99.40;;;;;;4999648;28;20042;-71
2022/06/28 10:57:28;;;;;;;5.88;1.13;;;22.70;97.80;;;;;;4984553;28;20614;-71
2022/06/28 10:59:56;;;;;;;4.82;1.20;;;22.80;96.00;;;;;;4988176;28;20663;-70
2022/06/28 11:02:23;;;;;;;4.45;1.05;;;22.90;96.60;;;;;;4986361;28;20073;-71
2022/06/28 11:05:09;;;;;;;6.15;1.02;;;22.90;92.10;;;;;;5003885;28;20119;-71
2022/06/28 11:07:37;;;;;;;7.72;1.20;;;22.80;94.40;;;;;;5003347;28;20049;-71
2022/06/28 11:10:16;;;;;;;4.28;1.20;;;22.90;94.20;;;;;;5003797;28;20038;-71
2022/06/28 11:12:43;;;;;;;3.20;0.90;;;23.00;93.60;;;;;;5004071;28;20123;-71
2022/06/28 11:15:39;;;;;;;2.50;1.20;;;23.00;92.90;;;;;;5003840;28;20050;-70
2022/06/28 11:18:18;;;;;;;5.47;1.05;;;22.90;80.80;;;;;;4987222;28;20576;-72
2022/06/28 11:20:44;;;;;;;;;;;22.90;91.50;;;;;;5001680;28;20409;-72
2022/06/28 11:23:25;;;;;;;5.07;1.00;;;23.10;91.70;;;;;;5003541;28;19930;-72
2022/06/28 11:28:59;;;;;;;5.30;1.10;;;23.30;91.30;;;;;;5001904;28;20157;-71
2022/06/28 11:31:25;;;;;;;5.40;1.20;;;23.30;91.40;;;;;;5000880;28;20038;-73
2022/06/28 11:33:52;;;;;;;3.75;0.80;;;23.20;90.00;;;;;;4986128;28;20038;-72
2022/06/28 11:36:31;;;;;;;3.67;0.80;;;23.20;85.80;;;;;;5002901;28;20529;-72
2022/06/28 11:39:15;;;;;;;4.28;1.00;;;23.30;91.30;;;;;;4985895;28;20053;-72
2022/06/28 11:41:51;;;;;;;7.03;1.08;;;23.30;90.50;;;;;;5002676;28;20101;-71
2022/06/28 11:44:20;;;;;;;4.97;1.00;;;23.50;93.50;;;;;;5001697;28;20061;-72
2022/06/28 11:46:46;;;;;;;;;;;23.80;92.40;;;;;;5003168;28;20050;-72
2022/06/28 11:49:12;;;;;;;4.07;0.82;;;23.90;87.90;;;;;;5002212;28;19922;-71
2022/06/28 11:51:41;;;;;;;2.10;0.60;;;23.90;90.00;;;;;;5000557;28;20061;-71
2022/06/28 11:54:08;;;;;;;4.50;0.60;;;24.10;88.70;;;;;;4985560;28;20060;-71
2022/06/28 11:56:51;;;;;;;4.13;0.90;;;24.20;86.80;;;;;;4969118;28;20505;-72
2022/06/28 11:59:17;;;;;;;3.20;0.75;;;24.10;82.20;;;;;;5002276;28;20042;-71
2022/06/28 12:01:46;;;;;;;4.83;0.70;;;23.90;81.90;;;;;;4987092;28;20536;-72
2022/06/28 12:04:20;;;;;;;3.05;0.73;;;23.80;82.30;;;;;;4985364;28;20606;-71
2022/06/28 12:06:47;;;;;;;3.10;0.85;;;23.60;90.20;;;;;;5003019;28;20128;-71
2022/06/28 12:09:16;;;;;;;2.55;0.70;;;23.40;92.60;;;;;;4985132;28;20125;-71
2022/06/28 12:11:50;;;;;;;4.15;1.10;;;23.10;91.00;;;;;;4984200;28;20080;-71
2022/06/28 12:14:22;;;;;;;3.70;0.80;;;23.00;92.40;;;;;;4985765;28;20132;-71
2022/06/28 12:16:58;;;;;;;3.22;0.55;;;22.80;90.70;;;;;;4985968;28;20042;-71
2022/06/28 12:19:32;;;;;;;4.57;0.90;;;22.70;87.30;;;;;;4984896;28;20046;-71
2022/06/28 12:22:02;;;;;;;3.72;1.00;;;22.70;92.00;;;;;;4986304;28;20065;-71
2022/06/28 12:24:47;;;;;;;4.68;1.00;;;22.80;92.60;;;;;;4984276;28;20037;-72
2022/06/28 12:27:19;;;;;;;5.45;0.90;;;22.90;92.20;;;;;;5002858;28;20092;-72
2022/06/28 12:29:45;;;;;;;5.85;1.10;;;22.90;90.60;;;;;;4999516;28;20041;-72
2022/06/28 12:32:11;;;;;;;4.70;1.08;;;22.80;92.00;;;;;;5002284;28;20040;-71
2022/06/28 12:34:39;;;;;;;4.95;1.20;;;22.80;94.40;;;;;;4978740;28;20084;-71
2022/06/28 12:37:07;;;;;;;2.90;0.70;;;23.10;89.70;;;;;;5002947;28;20061;-72
2022/06/28 12:39:33;;;;;;;4.55;0.73;;;23.00;81.50;;;;;;4999492;28;20129;-73
2022/06/28 12:41:58;;;;;;;5.88;1.05;;;23.00;85.20;;;;;;5002946;28;20441;-72
2022/06/28 12:44:24;;;;;;;5.03;1.05;;;22.80;90.50;;;;;;4981464;28;20405;-72
2022/06/28 12:46:53;;;;;;;4.25;0.85;;;22.80;91.80;;;;;;5001649;28;20072;-72
2022/06/28 12:49:20;;;;;;;4.73;1.13;;;22.70;92.50;;;;;;5000878;28;20080;-72
2022/06/28 12:51:46;;;;;;;2.90;0.80;;;22.60;93.20;;;;;;4985561;28;20868;-72
2022/06/28 12:54:11;;;;;;;6.05;1.20;;;22.50;92.30;;;;;;4970747;28;20046;-72
2022/06/28 12:56:38;;;;;;;4.85;0.90;;;22.50;92.30;;;;;;4985176;28;20339;-72